sensor_id;sensor_type;location;lat;lon;timestamp;P1;durP1;ratioP1;P2;durP2;ratioP2
9763;SDS011;4921;43.214;27.936;2023-04-26T00:01:18;11.60;;;10.37;;
9763;SDS011;4921;43.214;27.936;2023-04-26T00:03:46;11.73;;;9.20;;
9763;SDS011;4921;43.214;27.936;2023-04-26T00:06:15;9.63;;;8.63;;
9763;SDS011;4921;43.214;27.936;2023-04-26T00:08:41;10.03;;;8.03;;
9763;SDS011;4921;43.214;27.936;2023-04-26T00:11:09;8.00;;;7.20;;
9763;SDS011;4921;43.214;27.936;2023-04-26T00:13:35;10.37;;;9.27;;
9763;SDS011;4921;43.214;27.936;2023-04-26T00:16:02;9.43;;;7.73;;
9763;SDS011;4921;43.214;27.936;2023-04-26T00:18:30;11.23;;;8.13;;
9763;SDS011;4921;43.214;27.936;2023-04-26T00:20:57;10.93;;;8.03;;
9763;SDS011;4921;43.214;27.936;2023-04-26T00:23:25;10.57;;;7.33;;
9763;SDS011;4921;43.214;27.936;2023-04-26T00:25:52;9.17;;;7.50;;
9763;SDS011;4921;43.214;27.936;2023-04-26T00:28:19;9.73;;;7.43;;
9763;SDS011;4921;43.214;27.936;2023-04-26T00:30:46;9.93;;;7.50;;
9763;SDS011;4921;43.214;27.936;2023-04-26T00:33:13;9.97;;;7.27;;
9763;SDS011;4921;43.214;27.936;2023-04-26T00:35:40;8.67;;;7.13;;
9763;SDS011;4921;43.214;27.936;2023-04-26T00:38:07;10.50;;;7.17;;
9763;SDS011;4921;43.214;27.936;2023-04-26T00:40:35;8.53;;;7.07;;
9763;SDS011;4921;43.214;27.936;2023-04-26T00:43:02;9.27;;;7.20;;
9763;SDS011;4921;43.214;27.936;2023-04-26T00:45:29;8.13;;;6.97;;
9763;SDS011;4921;43.214;27.936;2023-04-26T00:47:57;9.73;;;6.43;;
9763;SDS011;4921;43.214;27.936;2023-04-26T00:50:25;6.50;;;5.93;;
9763;SDS011;4921;43.214;27.936;2023-04-26T00:52:52;7.83;;;6.07;;
9763;SDS011;4921;43.214;27.936;2023-04-26T00:55:20;7.37;;;5.90;;
9763;SDS011;4921;43.214;27.936;2023-04-26T00:57:49;7.73;;;6.60;;
9763;SDS011;4921;43.214;27.936;2023-04-26T01:00:16;13.30;;;8.20;;
9763;SDS011;4921;43.214;27.936;2023-04-26T01:02:43;16.13;;;8.47;;
9763;SDS011;4921;43.214;27.936;2023-04-26T01:05:11;14.83;;;9.37;;
9763;SDS011;4921;43.214;27.936;2023-04-26T01:07:38;14.40;;;10.73;;
9763;SDS011;4921;43.214;27.936;2023-04-26T01:10:05;13.33;;;10.67;;
9763;SDS011;4921;43.214;27.936;2023-04-26T01:12:33;16.60;;;12.87;;
9763;SDS011;4921;43.214;27.936;2023-04-26T01:15:04;21.57;;;11.97;;
9763;SDS011;4921;43.214;27.936;2023-04-26T01:17:31;16.90;;;12.40;;
9763;SDS011;4921;43.214;27.936;2023-04-26T01:19:58;20.03;;;12.40;;
9763;SDS011;4921;43.214;27.936;2023-04-26T01:22:25;16.77;;;12.10;;
9763;SDS011;4921;43.214;27.936;2023-04-26T01:24:54;15.73;;;11.97;;
9763;SDS011;4921;43.214;27.936;2023-04-26T01:27:23;19.93;;;11.27;;
9763;SDS011;4921;43.214;27.936;2023-04-26T01:29:50;12.77;;;10.83;;
9763;SDS011;4921;43.214;27.936;2023-04-26T01:32:17;13.67;;;9.97;;
9763;SDS011;4921;43.214;27.936;2023-04-26T01:34:44;15.33;;;10.37;;
9763;SDS011;4921;43.214;27.936;2023-04-26T01:37:11;12.73;;;9.43;;
9763;SDS011;4921;43.214;27.936;2023-04-26T01:39:38;17.60;;;10.60;;
9763;SDS011;4921;43.214;27.936;2023-04-26T01:42:06;17.30;;;9.80;;
9763;SDS011;4921;43.214;27.936;2023-04-26T01:44:33;12.67;;;9.93;;
9763;SDS011;4921;43.214;27.936;2023-04-26T01:47:00;14.57;;;9.73;;
9763;SDS011;4921;43.214;27.936;2023-04-26T01:49:27;17.70;;;10.30;;
9763;SDS011;4921;43.214;27.936;2023-04-26T01:51:54;13.07;;;9.67;;
9763;SDS011;4921;43.214;27.936;2023-04-26T01:54:21;12.23;;;9.73;;
9763;SDS011;4921;43.214;27.936;2023-04-26T01:56:48;12.10;;;9.67;;
9763;SDS011;4921;43.214;27.936;2023-04-26T01:59:17;12.10;;;9.60;;
9763;SDS011;4921;43.214;27.936;2023-04-26T02:01:44;13.13;;;10.00;;
9763;SDS011;4921;43.214;27.936;2023-04-26T02:04:11;13.17;;;9.77;;
9763;SDS011;4921;43.214;27.936;2023-04-26T02:06:38;15.03;;;9.57;;
9763;SDS011;4921;43.214;27.936;2023-04-26T02:09:05;12.60;;;10.43;;
9763;SDS011;4921;43.214;27.936;2023-04-26T02:11:33;16.40;;;9.23;;
9763;SDS011;4921;43.214;27.936;2023-04-26T02:14:01;13.67;;;9.87;;
9763;SDS011;4921;43.214;27.936;2023-04-26T02:16:29;14.23;;;10.17;;
9763;SDS011;4921;43.214;27.936;2023-04-26T02:18:56;10.43;;;9.37;;
9763;SDS011;4921;43.214;27.936;2023-04-26T02:21:24;13.07;;;9.97;;
9763;SDS011;4921;43.214;27.936;2023-04-26T02:23:51;15.07;;;10.00;;
9763;SDS011;4921;43.214;27.936;2023-04-26T02:26:18;13.97;;;8.67;;
9763;SDS011;4921;43.214;27.936;2023-04-26T02:28:45;12.40;;;9.10;;
9763;SDS011;4921;43.214;27.936;2023-04-26T02:31:12;13.53;;;9.57;;
9763;SDS011;4921;43.214;27.936;2023-04-26T02:33:41;12.13;;;9.63;;
9763;SDS011;4921;43.214;27.936;2023-04-26T02:36:08;11.13;;;9.10;;
9763;SDS011;4921;43.214;27.936;2023-04-26T02:38:35;13.37;;;8.73;;
9763;SDS011;4921;43.214;27.936;2023-04-26T02:41:02;13.20;;;9.20;;
9763;SDS011;4921;43.214;27.936;2023-04-26T02:43:30;11.67;;;8.67;;
9763;SDS011;4921;43.214;27.936;2023-04-26T02:45:56;10.47;;;9.20;;
9763;SDS011;4921;43.214;27.936;2023-04-26T02:48:25;12.87;;;9.37;;
9763;SDS011;4921;43.214;27.936;2023-04-26T02:50:53;12.90;;;9.43;;
9763;SDS011;4921;43.214;27.936;2023-04-26T02:53:21;11.70;;;10.10;;
9763;SDS011;4921;43.214;27.936;2023-04-26T02:55:48;12.23;;;10.30;;
9763;SDS011;4921;43.214;27.936;2023-04-26T02:58:15;13.57;;;10.67;;
9763;SDS011;4921;43.214;27.936;2023-04-26T03:00:44;18.70;;;10.40;;
9763;SDS011;4921;43.214;27.936;2023-04-26T03:03:12;15.50;;;10.67;;
9763;SDS011;4921;43.214;27.936;2023-04-26T03:05:39;20.40;;;10.90;;
9763;SDS011;4921;43.214;27.936;2023-04-26T03:08:08;19.90;;;12.00;;
9763;SDS011;4921;43.214;27.936;2023-04-26T03:10:35;15.47;;;11.13;;
9763;SDS011;4921;43.214;27.936;2023-04-26T03:13:02;15.27;;;11.07;;
9763;SDS011;4921;43.214;27.936;2023-04-26T03:15:30;17.07;;;11.00;;
9763;SDS011;4921;43.214;27.936;2023-04-26T03:17:57;18.83;;;11.50;;
9763;SDS011;4921;43.214;27.936;2023-04-26T03:20:24;17.03;;;11.50;;
9763;SDS011;4921;43.214;27.936;2023-04-26T03:22:50;17.33;;;11.70;;
9763;SDS011;4921;43.214;27.936;2023-04-26T03:25:19;20.77;;;11.47;;
9763;SDS011;4921;43.214;27.936;2023-04-26T03:27:46;18.17;;;11.67;;
9763;SDS011;4921;43.214;27.936;2023-04-26T03:30:13;16.07;;;11.10;;
9763;SDS011;4921;43.214;27.936;2023-04-26T03:32:40;20.07;;;11.30;;
9763;SDS011;4921;43.214;27.936;2023-04-26T03:35:08;16.07;;;11.93;;
9763;SDS011;4921;43.214;27.936;2023-04-26T03:37:35;17.20;;;11.10;;
9763;SDS011;4921;43.214;27.936;2023-04-26T03:40:05;23.20;;;12.30;;
9763;SDS011;4921;43.214;27.936;2023-04-26T03:42:35;17.43;;;11.73;;
9763;SDS011;4921;43.214;27.936;2023-04-26T03:45:02;18.00;;;11.97;;
9763;SDS011;4921;43.214;27.936;2023-04-26T03:47:30;19.67;;;11.90;;
9763;SDS011;4921;43.214;27.936;2023-04-26T03:49:57;23.97;;;11.23;;
9763;SDS011;4921;43.214;27.936;2023-04-26T03:52:24;23.13;;;10.47;;
9763;SDS011;4921;43.214;27.936;2023-04-26T03:54:51;20.80;;;9.90;;
9763;SDS011;4921;43.214;27.936;2023-04-26T03:57:18;17.47;;;9.20;;
9763;SDS011;4921;43.214;27.936;2023-04-26T03:59:46;17.70;;;9.00;;
9763;SDS011;4921;43.214;27.936;2023-04-26T04:02:13;15.70;;;9.70;;
9763;SDS011;4921;43.214;27.936;2023-04-26T04:04:40;17.20;;;8.57;;
9763;SDS011;4921;43.214;27.936;2023-04-26T04:07:07;17.53;;;9.50;;
9763;SDS011;4921;43.214;27.936;2023-04-26T04:09:34;23.30;;;10.77;;
9763;SDS011;4921;43.214;27.936;2023-04-26T04:12:01;21.80;;;11.87;;
9763;SDS011;4921;43.214;27.936;2023-04-26T04:14:28;28.50;;;12.27;;
9763;SDS011;4921;43.214;27.936;2023-04-26T04:16:56;26.73;;;12.90;;
9763;SDS011;4921;43.214;27.936;2023-04-26T04:19:23;22.33;;;11.70;;
9763;SDS011;4921;43.214;27.936;2023-04-26T04:21:51;36.73;;;12.03;;
9763;SDS011;4921;43.214;27.936;2023-04-26T04:24:17;23.97;;;12.53;;
9763;SDS011;4921;43.214;27.936;2023-04-26T04:26:45;25.30;;;11.50;;
9763;SDS011;4921;43.214;27.936;2023-04-26T04:29:12;21.33;;;12.67;;
9763;SDS011;4921;43.214;27.936;2023-04-26T04:31:40;23.67;;;12.03;;
9763;SDS011;4921;43.214;27.936;2023-04-26T04:34:08;26.47;;;12.43;;
9763;SDS011;4921;43.214;27.936;2023-04-26T04:36:35;32.07;;;12.50;;
9763;SDS011;4921;43.214;27.936;2023-04-26T04:39:03;31.70;;;12.77;;
9763;SDS011;4921;43.214;27.936;2023-04-26T04:41:33;22.23;;;11.87;;
9763;SDS011;4921;43.214;27.936;2023-04-26T04:44:01;32.53;;;11.27;;
9763;SDS011;4921;43.214;27.936;2023-04-26T04:46:28;25.63;;;11.80;;
9763;SDS011;4921;43.214;27.936;2023-04-26T04:48:55;22.03;;;10.30;;
9763;SDS011;4921;43.214;27.936;2023-04-26T04:51:23;30.53;;;12.00;;
9763;SDS011;4921;43.214;27.936;2023-04-26T04:53:50;31.57;;;10.83;;
9763;SDS011;4921;43.214;27.936;2023-04-26T04:56:17;21.53;;;10.37;;
9763;SDS011;4921;43.214;27.936;2023-04-26T04:58:45;26.47;;;10.90;;
9763;SDS011;4921;43.214;27.936;2023-04-26T05:01:12;27.27;;;10.30;;
9763;SDS011;4921;43.214;27.936;2023-04-26T05:03:40;18.47;;;9.97;;
9763;SDS011;4921;43.214;27.936;2023-04-26T05:06:06;20.27;;;10.30;;
9763;SDS011;4921;43.214;27.936;2023-04-26T05:08:35;23.30;;;10.27;;
9763;SDS011;4921;43.214;27.936;2023-04-26T05:11:02;28.97;;;10.27;;
9763;SDS011;4921;43.214;27.936;2023-04-26T05:13:29;22.90;;;10.73;;
9763;SDS011;4921;43.214;27.936;2023-04-26T05:15:56;21.23;;;11.90;;
9763;SDS011;4921;43.214;27.936;2023-04-26T05:18:23;21.77;;;11.83;;
9763;SDS011;4921;43.214;27.936;2023-04-26T05:20:50;26.63;;;14.07;;
9763;SDS011;4921;43.214;27.936;2023-04-26T05:23:17;31.10;;;16.00;;
9763;SDS011;4921;43.214;27.936;2023-04-26T05:25:45;27.40;;;17.17;;
9763;SDS011;4921;43.214;27.936;2023-04-26T05:28:12;28.20;;;18.77;;
9763;SDS011;4921;43.214;27.936;2023-04-26T05:30:39;31.60;;;21.40;;
9763;SDS011;4921;43.214;27.936;2023-04-26T05:33:06;35.37;;;23.43;;
9763;SDS011;4921;43.214;27.936;2023-04-26T05:35:33;29.57;;;25.00;;
9763;SDS011;4921;43.214;27.936;2023-04-26T05:38:00;34.10;;;26.50;;
9763;SDS011;4921;43.214;27.936;2023-04-26T05:40:28;32.70;;;25.70;;
9763;SDS011;4921;43.214;27.936;2023-04-26T05:42:57;35.60;;;25.30;;
9763;SDS011;4921;43.214;27.936;2023-04-26T05:45:24;36.73;;;27.60;;
9763;SDS011;4921;43.214;27.936;2023-04-26T05:47:51;37.07;;;29.97;;
9763;SDS011;4921;43.214;27.936;2023-04-26T05:50:18;42.00;;;33.13;;
9763;SDS011;4921;43.214;27.936;2023-04-26T05:52:45;41.57;;;32.37;;
9763;SDS011;4921;43.214;27.936;2023-04-26T05:55:12;44.20;;;32.10;;
9763;SDS011;4921;43.214;27.936;2023-04-26T05:57:39;42.97;;;32.23;;
9763;SDS011;4921;43.214;27.936;2023-04-26T06:00:08;40.07;;;31.80;;
9763;SDS011;4921;43.214;27.936;2023-04-26T06:02:36;46.23;;;29.80;;
9763;SDS011;4921;43.214;27.936;2023-04-26T06:05:03;45.83;;;30.03;;
9763;SDS011;4921;43.214;27.936;2023-04-26T06:07:32;42.23;;;28.57;;
9763;SDS011;4921;43.214;27.936;2023-04-26T06:10:00;44.70;;;28.90;;
9763;SDS011;4921;43.214;27.936;2023-04-26T06:12:27;38.63;;;28.97;;
9763;SDS011;4921;43.214;27.936;2023-04-26T06:14:54;50.63;;;28.43;;
9763;SDS011;4921;43.214;27.936;2023-04-26T06:17:23;42.30;;;29.53;;
9763;SDS011;4921;43.214;27.936;2023-04-26T06:19:50;37.87;;;29.13;;
9763;SDS011;4921;43.214;27.936;2023-04-26T06:22:17;42.10;;;28.97;;
9763;SDS011;4921;43.214;27.936;2023-04-26T06:24:44;40.47;;;29.17;;
9763;SDS011;4921;43.214;27.936;2023-04-26T06:27:11;36.53;;;27.97;;
9763;SDS011;4921;43.214;27.936;2023-04-26T06:29:38;39.03;;;28.87;;
9763;SDS011;4921;43.214;27.936;2023-04-26T06:32:05;38.27;;;28.57;;
9763;SDS011;4921;43.214;27.936;2023-04-26T06:34:34;36.37;;;27.10;;
9763;SDS011;4921;43.214;27.936;2023-04-26T06:37:02;39.33;;;27.10;;
9763;SDS011;4921;43.214;27.936;2023-04-26T06:39:30;36.00;;;27.10;;
9763;SDS011;4921;43.214;27.936;2023-04-26T06:41:56;36.70;;;27.30;;
9763;SDS011;4921;43.214;27.936;2023-04-26T06:44:23;33.90;;;27.97;;
9763;SDS011;4921;43.214;27.936;2023-04-26T06:46:52;34.57;;;26.70;;
9763;SDS011;4921;43.214;27.936;2023-04-26T06:49:19;37.20;;;29.13;;
9763;SDS011;4921;43.214;27.936;2023-04-26T06:51:47;39.00;;;30.00;;
9763;SDS011;4921;43.214;27.936;2023-04-26T06:54:14;39.43;;;32.57;;
9763;SDS011;4921;43.214;27.936;2023-04-26T06:56:41;40.23;;;34.00;;
9763;SDS011;4921;43.214;27.936;2023-04-26T06:59:08;38.10;;;32.67;;
9763;SDS011;4921;43.214;27.936;2023-04-26T07:01:35;39.60;;;32.03;;
9763;SDS011;4921;43.214;27.936;2023-04-26T07:04:02;37.57;;;31.77;;
9763;SDS011;4921;43.214;27.936;2023-04-26T07:06:31;40.13;;;31.13;;
9763;SDS011;4921;43.214;27.936;2023-04-26T07:09:00;34.23;;;30.47;;
9763;SDS011;4921;43.214;27.936;2023-04-26T07:11:28;32.65;;;28.13;;
9763;SDS011;4921;43.214;27.936;2023-04-26T07:13:56;39.20;;;31.20;;
9763;SDS011;4921;43.214;27.936;2023-04-26T07:16:23;36.60;;;31.17;;
9763;SDS011;4921;43.214;27.936;2023-04-26T07:18:50;42.40;;;35.77;;
9763;SDS011;4921;43.214;27.936;2023-04-26T07:21:17;40.63;;;34.13;;
9763;SDS011;4921;43.214;27.936;2023-04-26T07:23:44;37.80;;;33.67;;
9763;SDS011;4921;43.214;27.936;2023-04-26T07:26:12;42.70;;;32.53;;
9763;SDS011;4921;43.214;27.936;2023-04-26T07:28:39;36.40;;;31.40;;
9763;SDS011;4921;43.214;27.936;2023-04-26T07:31:06;32.00;;;28.50;;
9763;SDS011;4921;43.214;27.936;2023-04-26T07:33:33;26.83;;;23.93;;
9763;SDS011;4921;43.214;27.936;2023-04-26T07:36:00;23.20;;;20.80;;
9763;SDS011;4921;43.214;27.936;2023-04-26T07:38:27;23.57;;;20.07;;
9763;SDS011;4921;43.214;27.936;2023-04-26T07:40:54;20.63;;;18.53;;
9763;SDS011;4921;43.214;27.936;2023-04-26T07:43:22;22.40;;;17.67;;
9763;SDS011;4921;43.214;27.936;2023-04-26T07:45:49;18.50;;;16.67;;
9763;SDS011;4921;43.214;27.936;2023-04-26T07:48:16;19.13;;;16.10;;
9763;SDS011;4921;43.214;27.936;2023-04-26T07:50:43;16.97;;;14.20;;
9763;SDS011;4921;43.214;27.936;2023-04-26T07:53:10;15.70;;;14.03;;
9763;SDS011;4921;43.214;27.936;2023-04-26T07:55:37;19.80;;;14.93;;
9763;SDS011;4921;43.214;27.936;2023-04-26T07:58:04;15.63;;;14.00;;
9763;SDS011;4921;43.214;27.936;2023-04-26T08:00:32;14.67;;;13.20;;
9763;SDS011;4921;43.214;27.936;2023-04-26T08:03:02;16.57;;;13.70;;
9763;SDS011;4921;43.214;27.936;2023-04-26T08:05:29;17.87;;;12.70;;
9763;SDS011;4921;43.214;27.936;2023-04-26T08:07:56;15.87;;;13.87;;
9763;SDS011;4921;43.214;27.936;2023-04-26T08:10:25;13.07;;;11.87;;
9763;SDS011;4921;43.214;27.936;2023-04-26T08:12:52;13.27;;;11.60;;
9763;SDS011;4921;43.214;27.936;2023-04-26T08:15:20;14.77;;;11.47;;
9763;SDS011;4921;43.214;27.936;2023-04-26T08:17:48;10.73;;;9.63;;
9763;SDS011;4921;43.214;27.936;2023-04-26T08:20:17;11.37;;;8.73;;
9763;SDS011;4921;43.214;27.936;2023-04-26T08:22:45;11.87;;;9.00;;
9763;SDS011;4921;43.214;27.936;2023-04-26T08:25:12;8.40;;;7.57;;
9763;SDS011;4921;43.214;27.936;2023-04-26T08:27:39;9.40;;;8.00;;
9763;SDS011;4921;43.214;27.936;2023-04-26T08:30:06;8.47;;;7.57;;
9763;SDS011;4921;43.214;27.936;2023-04-26T08:32:33;8.37;;;7.63;;
9763;SDS011;4921;43.214;27.936;2023-04-26T08:35:02;9.13;;;8.23;;
9763;SDS011;4921;43.214;27.936;2023-04-26T08:37:29;8.90;;;8.03;;
9763;SDS011;4921;43.214;27.936;2023-04-26T08:39:56;9.40;;;7.83;;
9763;SDS011;4921;43.214;27.936;2023-04-26T08:42:25;9.37;;;8.43;;
9763;SDS011;4921;43.214;27.936;2023-04-26T08:44:53;11.40;;;9.63;;
9763;SDS011;4921;43.214;27.936;2023-04-26T08:47:21;10.70;;;8.17;;
9763;SDS011;4921;43.214;27.936;2023-04-26T08:49:53;8.67;;;7.90;;
9763;SDS011;4921;43.214;27.936;2023-04-26T08:52:29;11.90;;;8.30;;
9763;SDS011;4921;43.214;27.936;2023-04-26T08:54:57;8.97;;;8.17;;
9763;SDS011;4921;43.214;27.936;2023-04-26T08:57:25;8.70;;;7.73;;
9763;SDS011;4921;43.214;27.936;2023-04-26T08:59:52;13.67;;;9.30;;
9763;SDS011;4921;43.214;27.936;2023-04-26T09:02:22;10.93;;;9.77;;
9763;SDS011;4921;43.214;27.936;2023-04-26T09:04:49;9.93;;;8.93;;
9763;SDS011;4921;43.214;27.936;2023-04-26T09:07:18;9.63;;;8.63;;
9763;SDS011;4921;43.214;27.936;2023-04-26T09:09:48;10.70;;;8.73;;
9763;SDS011;4921;43.214;27.936;2023-04-26T09:12:17;11.47;;;8.33;;
9763;SDS011;4921;43.214;27.936;2023-04-26T09:14:45;14.57;;;9.13;;
9763;SDS011;4921;43.214;27.936;2023-04-26T09:17:25;10.17;;;9.13;;
9763;SDS011;4921;43.214;27.936;2023-04-26T09:19:53;15.63;;;9.17;;
9763;SDS011;4921;43.214;27.936;2023-04-26T09:22:27;16.30;;;10.90;;
9763;SDS011;4921;43.214;27.936;2023-04-26T09:24:57;9.00;;;8.10;;
9763;SDS011;4921;43.214;27.936;2023-04-26T09:27:31;8.60;;;7.67;;
9763;SDS011;4921;43.214;27.936;2023-04-26T09:30:03;10.43;;;7.40;;
9763;SDS011;4921;43.214;27.936;2023-04-26T09:32:46;7.07;;;6.47;;
9763;SDS011;4921;43.214;27.936;2023-04-26T09:38:04;5.60;;;5.20;;
9763;SDS011;4921;43.214;27.936;2023-04-26T09:40:35;5.90;;;5.30;;
9763;SDS011;4921;43.214;27.936;2023-04-26T09:43:04;6.47;;;5.77;;
9763;SDS011;4921;43.214;27.936;2023-04-26T09:45:32;7.00;;;6.33;;
9763;SDS011;4921;43.214;27.936;2023-04-26T09:48:17;6.77;;;6.17;;
9763;SDS011;4921;43.214;27.936;2023-04-26T09:50:46;7.40;;;5.97;;
9763;SDS011;4921;43.214;27.936;2023-04-26T09:53:27;7.80;;;6.30;;
9763;SDS011;4921;43.214;27.936;2023-04-26T09:56:04;7.17;;;6.47;;
9763;SDS011;4921;43.214;27.936;2023-04-26T09:58:32;8.63;;;6.97;;
9763;SDS011;4921;43.214;27.936;2023-04-26T10:01:00;8.53;;;6.13;;
9763;SDS011;4921;43.214;27.936;2023-04-26T10:03:29;6.93;;;6.20;;
9763;SDS011;4921;43.214;27.936;2023-04-26T10:05:57;7.13;;;6.27;;
9763;SDS011;4921;43.214;27.936;2023-04-26T10:08:24;6.87;;;6.00;;
9763;SDS011;4921;43.214;27.936;2023-04-26T10:10:51;11.13;;;9.10;;
9763;SDS011;4921;43.214;27.936;2023-04-26T10:13:21;8.17;;;6.47;;
9763;SDS011;4921;43.214;27.936;2023-04-26T10:15:48;8.03;;;7.23;;
9763;SDS011;4921;43.214;27.936;2023-04-26T10:18:16;7.07;;;5.87;;
9763;SDS011;4921;43.214;27.936;2023-04-26T10:20:43;7.20;;;6.50;;
9763;SDS011;4921;43.214;27.936;2023-04-26T10:23:17;11.00;;;6.37;;
9763;SDS011;4921;43.214;27.936;2023-04-26T10:25:46;6.90;;;6.13;;
9763;SDS011;4921;43.214;27.936;2023-04-26T10:28:14;7.37;;;5.53;;
9763;SDS011;4921;43.214;27.936;2023-04-26T10:30:55;8.30;;;6.37;;
9763;SDS011;4921;43.214;27.936;2023-04-26T10:33:22;7.17;;;5.43;;
9763;SDS011;4921;43.214;27.936;2023-04-26T10:36:06;7.73;;;5.90;;
9763;SDS011;4921;43.214;27.936;2023-04-26T10:38:35;9.47;;;5.63;;
9763;SDS011;4921;43.214;27.936;2023-04-26T10:44:00;9.17;;;6.20;;
9763;SDS011;4921;43.214;27.936;2023-04-26T10:47:04;8.27;;;5.50;;
9763;SDS011;4921;43.214;27.936;2023-04-26T10:49:42;9.30;;;5.83;;
9763;SDS011;4921;43.214;27.936;2023-04-26T10:52:11;7.47;;;5.27;;
9763;SDS011;4921;43.214;27.936;2023-04-26T10:54:46;10.97;;;6.37;;
9763;SDS011;4921;43.214;27.936;2023-04-26T10:57:14;12.37;;;6.97;;
9763;SDS011;4921;43.214;27.936;2023-04-26T11:02:56;7.50;;;6.90;;
9763;SDS011;4921;43.214;27.936;2023-04-26T11:05:38;9.30;;;7.30;;
9763;SDS011;4921;43.214;27.936;2023-04-26T11:08:23;8.03;;;7.23;;
9763;SDS011;4921;43.214;27.936;2023-04-26T11:13:36;9.67;;;6.27;;
9763;SDS011;4921;43.214;27.936;2023-04-26T11:16:04;7.13;;;6.40;;
9763;SDS011;4921;43.214;27.936;2023-04-26T11:18:34;6.60;;;5.67;;
9763;SDS011;4921;43.214;27.936;2023-04-26T11:21:03;6.33;;;5.80;;
9763;SDS011;4921;43.214;27.936;2023-04-26T11:23:31;6.27;;;5.77;;
9763;SDS011;4921;43.214;27.936;2023-04-26T11:25:58;9.70;;;6.63;;
9763;SDS011;4921;43.214;27.936;2023-04-26T11:28:29;6.83;;;6.23;;
9763;SDS011;4921;43.214;27.936;2023-04-26T11:30:56;6.20;;;5.70;;
9763;SDS011;4921;43.214;27.936;2023-04-26T11:33:23;7.70;;;5.13;;
9763;SDS011;4921;43.214;27.936;2023-04-26T11:35:52;5.37;;;4.87;;
9763;SDS011;4921;43.214;27.936;2023-04-26T11:38:21;4.83;;;4.43;;
9763;SDS011;4921;43.214;27.936;2023-04-26T11:40:52;5.50;;;4.20;;
9763;SDS011;4921;43.214;27.936;2023-04-26T11:43:20;5.67;;;5.00;;
9763;SDS011;4921;43.214;27.936;2023-04-26T11:45:47;5.27;;;4.70;;
9763;SDS011;4921;43.214;27.936;2023-04-26T11:48:17;5.80;;;5.30;;
9763;SDS011;4921;43.214;27.936;2023-04-26T11:50:44;6.13;;;5.60;;
9763;SDS011;4921;43.214;27.936;2023-04-26T11:53:12;7.00;;;5.67;;
9763;SDS011;4921;43.214;27.936;2023-04-26T11:55:40;6.67;;;6.07;;
9763;SDS011;4921;43.214;27.936;2023-04-26T11:58:08;6.37;;;5.77;;
9763;SDS011;4921;43.214;27.936;2023-04-26T12:03:22;6.53;;;5.93;;
9763;SDS011;4921;43.214;27.936;2023-04-26T12:05:54;6.63;;;6.10;;
9763;SDS011;4921;43.214;27.936;2023-04-26T12:08:26;6.93;;;5.77;;
9763;SDS011;4921;43.214;27.936;2023-04-26T12:10:55;6.40;;;5.73;;
9763;SDS011;4921;43.214;27.936;2023-04-26T12:13:25;6.47;;;5.97;;
9763;SDS011;4921;43.214;27.936;2023-04-26T12:15:53;6.33;;;5.80;;
9763;SDS011;4921;43.214;27.936;2023-04-26T12:18:20;6.67;;;5.57;;
9763;SDS011;4921;43.214;27.936;2023-04-26T12:20:56;5.97;;;5.50;;
9763;SDS011;4921;43.214;27.936;2023-04-26T12:23:24;6.97;;;5.33;;
9763;SDS011;4921;43.214;27.936;2023-04-26T12:25:53;6.07;;;5.57;;
9763;SDS011;4921;43.214;27.936;2023-04-26T12:28:21;9.30;;;5.77;;
9763;SDS011;4921;43.214;27.936;2023-04-26T12:30:49;6.07;;;5.63;;
9763;SDS011;4921;43.214;27.936;2023-04-26T12:33:16;6.40;;;5.80;;
9763;SDS011;4921;43.214;27.936;2023-04-26T12:35:47;6.63;;;6.13;;
9763;SDS011;4921;43.214;27.936;2023-04-26T12:38:14;6.73;;;6.13;;
9763;SDS011;4921;43.214;27.936;2023-04-26T12:40:41;8.63;;;6.57;;
9763;SDS011;4921;43.214;27.936;2023-04-26T12:43:09;6.70;;;6.10;;
9763;SDS011;4921;43.214;27.936;2023-04-26T12:45:36;6.13;;;5.63;;
9763;SDS011;4921;43.214;27.936;2023-04-26T12:48:03;7.10;;;5.90;;
9763;SDS011;4921;43.214;27.936;2023-04-26T12:50:30;6.77;;;6.17;;
9763;SDS011;4921;43.214;27.936;2023-04-26T12:52:57;6.93;;;6.23;;
9763;SDS011;4921;43.214;27.936;2023-04-26T12:55:28;10.07;;;6.03;;
9763;SDS011;4921;43.214;27.936;2023-04-26T12:57:55;10.90;;;6.23;;
9763;SDS011;4921;43.214;27.936;2023-04-26T13:00:23;7.13;;;6.47;;
9763;SDS011;4921;43.214;27.936;2023-04-26T13:02:51;6.40;;;5.80;;
9763;SDS011;4921;43.214;27.936;2023-04-26T13:05:18;7.07;;;6.47;;
9763;SDS011;4921;43.214;27.936;2023-04-26T13:07:45;6.77;;;6.07;;
9763;SDS011;4921;43.214;27.936;2023-04-26T13:10:12;6.20;;;5.70;;
9763;SDS011;4921;43.214;27.936;2023-04-26T13:12:39;9.33;;;6.43;;
9763;SDS011;4921;43.214;27.936;2023-04-26T13:15:06;6.63;;;6.00;;
9763;SDS011;4921;43.214;27.936;2023-04-26T13:17:35;6.50;;;5.93;;
9763;SDS011;4921;43.214;27.936;2023-04-26T13:20:03;7.00;;;6.33;;
9763;SDS011;4921;43.214;27.936;2023-04-26T13:22:31;7.73;;;6.23;;
9763;SDS011;4921;43.214;27.936;2023-04-26T13:24:58;5.97;;;5.40;;
9763;SDS011;4921;43.214;27.936;2023-04-26T13:27:25;6.90;;;6.20;;
9763;SDS011;4921;43.214;27.936;2023-04-26T13:29:52;6.03;;;5.53;;
9763;SDS011;4921;43.214;27.936;2023-04-26T13:32:19;6.70;;;6.10;;
9763;SDS011;4921;43.214;27.936;2023-04-26T13:34:48;6.90;;;6.30;;
9763;SDS011;4921;43.214;27.936;2023-04-26T13:37:16;7.20;;;6.50;;
9763;SDS011;4921;43.214;27.936;2023-04-26T13:39:44;7.13;;;6.43;;
9763;SDS011;4921;43.214;27.936;2023-04-26T13:42:12;7.17;;;6.30;;
9763;SDS011;4921;43.214;27.936;2023-04-26T13:44:39;6.93;;;5.70;;
9763;SDS011;4921;43.214;27.936;2023-04-26T13:47:06;8.10;;;6.30;;
9763;SDS011;4921;43.214;27.936;2023-04-26T13:49:33;6.63;;;6.10;;
9763;SDS011;4921;43.214;27.936;2023-04-26T13:52:01;6.50;;;6.00;;
9763;SDS011;4921;43.214;27.936;2023-04-26T13:54:28;7.70;;;6.30;;
9763;SDS011;4921;43.214;27.936;2023-04-26T13:56:55;7.00;;;6.33;;
9763;SDS011;4921;43.214;27.936;2023-04-26T13:59:23;6.80;;;6.20;;
9763;SDS011;4921;43.214;27.936;2023-04-26T14:01:50;6.93;;;6.27;;
9763;SDS011;4921;43.214;27.936;2023-04-26T14:04:17;6.37;;;5.87;;
9763;SDS011;4921;43.214;27.936;2023-04-26T14:06:44;6.67;;;6.03;;
9763;SDS011;4921;43.214;27.936;2023-04-26T14:09:12;6.70;;;6.17;;
9763;SDS011;4921;43.214;27.936;2023-04-26T14:11:40;6.70;;;6.20;;
9763;SDS011;4921;43.214;27.936;2023-04-26T14:14:07;7.30;;;6.30;;
9763;SDS011;4921;43.214;27.936;2023-04-26T14:16:34;6.10;;;5.70;;
9763;SDS011;4921;43.214;27.936;2023-04-26T14:19:01;6.90;;;6.20;;
9763;SDS011;4921;43.214;27.936;2023-04-26T14:21:28;6.63;;;5.97;;
9763;SDS011;4921;43.214;27.936;2023-04-26T14:23:55;6.87;;;6.37;;
9763;SDS011;4921;43.214;27.936;2023-04-26T14:26:24;6.87;;;5.67;;
9763;SDS011;4921;43.214;27.936;2023-04-26T14:28:51;8.73;;;7.87;;
9763;SDS011;4921;43.214;27.936;2023-04-26T14:31:18;6.50;;;5.90;;
9763;SDS011;4921;43.214;27.936;2023-04-26T14:33:46;7.17;;;6.57;;
9763;SDS011;4921;43.214;27.936;2023-04-26T14:36:13;6.90;;;6.40;;
9763;SDS011;4921;43.214;27.936;2023-04-26T14:38:40;7.47;;;6.77;;
9763;SDS011;4921;43.214;27.936;2023-04-26T14:41:08;7.43;;;6.43;;
9763;SDS011;4921;43.214;27.936;2023-04-26T14:43:36;7.40;;;6.80;;
9763;SDS011;4921;43.214;27.936;2023-04-26T14:46:04;7.60;;;6.90;;
9763;SDS011;4921;43.214;27.936;2023-04-26T14:48:32;8.87;;;6.73;;
9763;SDS011;4921;43.214;27.936;2023-04-26T14:50:59;7.83;;;7.23;;
9763;SDS011;4921;43.214;27.936;2023-04-26T14:53:26;7.73;;;6.50;;
9763;SDS011;4921;43.214;27.936;2023-04-26T14:55:53;6.70;;;6.20;;
9763;SDS011;4921;43.214;27.936;2023-04-26T14:58:21;7.30;;;6.77;;
9763;SDS011;4921;43.214;27.936;2023-04-26T15:00:49;7.03;;;6.43;;
9763;SDS011;4921;43.214;27.936;2023-04-26T15:03:16;7.00;;;6.33;;
9763;SDS011;4921;43.214;27.936;2023-04-26T15:05:43;6.83;;;6.27;;
9763;SDS011;4921;43.214;27.936;2023-04-26T15:08:10;6.33;;;5.87;;